< Typhoon 201419 2014 Season Typhoon 201421 >
Typhoon 201420 (NURI)
General InformationTrack Information on Google MapsDetailed Wind InformationForecast History on Google MapsAccess Analytics MapList of All Images || NewsDisaster Info.WeblogTrackbackTyphoon FrontTwiphoonTyphoon Now!Typhoon ImaginationDisaster Info. XMLResourceGoogle EarthGE AnimationAtom FeedGeoJSON
Detalied Best Track (Time Zone = UTC)
Year Month Day Hour Lat. Long. Pressure (hPa) Wind (kt) Class Image Chart
2014 10 30 00 12.6 140.9 1004 0 2 Image Chart
2014 10 30 06 12.6 139.7 1004 0 2 Image Chart
2014 10 30 12 12.6 138.8 1004 0 2 Image Chart
2014 10 30 18 12.4 138.0 1002 0 2 Image Chart
2014 10 31 00 12.4 137.2 1000 35 3 Image Chart
2014 10 31 06 12.5 136.4 1000 35 3 Image Chart
2014 10 31 12 12.6 135.5 998 35 3 Image Chart
2014 10 31 18 12.9 134.6 992 40 3 Image Chart
2014 11 1 00 13.0 134.0 980 55 4 Image Chart
2014 11 1 06 13.5 133.7 975 55 4 Image Chart
2014 11 1 12 14.1 133.5 965 65 5 Image Chart
2014 11 1 18 14.8 133.1 955 75 5 Image Chart
2014 11 2 00 15.4 132.8 940 85 5 Image Chart
2014 11 2 06 16.3 132.7 930 95 5 Image Chart
2014 11 2 12 17.2 132.5 910 110 5 Image Chart
2014 11 2 18 17.8 132.4 910 110 5 Image Chart
2014 11 3 00 18.4 132.5 910 110 5 Image Chart
2014 11 3 06 19.0 132.9 910 110 5 Image Chart
2014 11 3 12 19.8 133.5 915 105 5 Image Chart
2014 11 3 18 20.5 134.3 920 105 5 Image Chart
2014 11 4 00 21.3 135.0 925 100 5 Image Chart
2014 11 4 06 22.1 135.5 930 95 5 Image Chart
2014 11 4 12 23.0 136.2 935 90 5 Image Chart
2014 11 4 18 23.9 136.8 940 85 5 Image Chart
2014 11 5 00 24.6 137.3 945 80 5 Image Chart
2014 11 5 06 25.5 138.1 950 75 5 Image Chart
2014 11 5 12 26.2 138.9 960 70 5 Image Chart
2014 11 5 18 27.2 139.4 970 60 4 Image Chart
2014 11 6 00 28.3 139.9 975 60 4 Image Chart
2014 11 6 06 29.8 141.5 975 60 4 Image Chart
2014 11 6 12 32.1 143.4 980 60 4 Image Chart
2014 11 6 18 34.3 146.1 980 0 6 Image Chart
2014 11 7 00 37.0 151.0 984 0 6 Image Chart
2014 11 7 06 42.0 159.0 976 0 6 Image Chart
Japan Meteorological Agency Best Track Data | Correction Date : 2014-11-26
< Typhoon 201419 2014 Season Typhoon 201421 >

Help